createdAt,value
2023-03-31T00:01:01.874Z,99191.50
2023-03-31T00:03:29.742Z,99187.53
2023-03-31T00:05:58.783Z,99177.09
2023-03-31T00:08:35.647Z,99176.63
2023-03-31T00:11:07.114Z,99181.69
2023-03-31T00:13:35.047Z,99186.37
2023-03-31T00:16:05.675Z,99181.50
2023-03-31T00:18:34.484Z,99181.69
2023-03-31T00:21:25.116Z,99176.63
2023-03-31T00:23:58.201Z,99174.25
2023-03-31T00:26:26.333Z,99181.19
2023-03-31T00:28:54.404Z,99183.03
2023-03-31T00:31:22.746Z,99178.63
2023-03-31T00:33:50.401Z,99186.53
2023-03-31T00:36:30.160Z,99173.88
2023-03-31T00:39:08.871Z,99180.63
2023-03-31T00:41:39.306Z,99167.44
2023-03-31T00:44:19.131Z,99174.88
2023-03-31T00:47:03.763Z,99170.03
2023-03-31T00:49:38.333Z,99160.53
2023-03-31T00:52:15.747Z,99154.06
2023-03-31T00:54:45.486Z,99155.09
2023-03-31T00:57:15.228Z,99163.50
2023-03-31T00:59:48.134Z,99161.00
2023-03-31T01:02:16.452Z,99165.91
2023-03-31T01:04:50.966Z,99167.38
2023-03-31T01:07:27.108Z,99159.53
2023-03-31T01:09:59.191Z,99159.19
2023-03-31T01:12:27.218Z,99154.47
2023-03-31T01:14:55.647Z,99152.75
2023-03-31T01:17:24.985Z,99147.87
2023-03-31T01:20:30.468Z,99153.06
2023-03-31T01:23:32.364Z,99153.66
2023-03-31T01:26:21.089Z,99151.59
2023-03-31T01:28:54.200Z,99163.66
2023-03-31T01:31:32.029Z,99152.31
2023-03-31T01:34:08.570Z,99151.44
2023-03-31T01:36:58.866Z,99158.88
2023-03-31T01:39:45.024Z,99156.28
2023-03-31T01:42:17.435Z,99155.00
2023-03-31T01:45:03.447Z,99160.00
2023-03-31T01:47:40.766Z,99158.34
2023-03-31T01:50:20.281Z,99160.19
2023-03-31T01:53:09.988Z,99149.41
2023-03-31T01:55:46.852Z,99159.09
2023-03-31T01:58:28.360Z,99158.94
2023-03-31T02:01:03.687Z,99154.41
2023-03-31T02:03:45.586Z,99157.91
2023-03-31T02:06:17.647Z,99159.72
2023-03-31T02:08:49.740Z,99151.09
2023-03-31T02:11:17.980Z,99151.00
2023-03-31T02:13:46.981Z,99150.88
2023-03-31T02:16:19.126Z,99149.72
2023-03-31T02:18:48.277Z,99153.16
2023-03-31T02:21:16.525Z,99143.22
2023-03-31T02:23:44.857Z,99145.03
2023-03-31T02:26:17.335Z,99142.38
2023-03-31T02:28:45.037Z,99146.56
2023-03-31T02:31:22.578Z,99139.66
2023-03-31T02:33:50.199Z,99134.69
2023-03-31T02:36:18.468Z,99132.66
2023-03-31T02:39:08.787Z,99120.50
2023-03-31T02:41:36.701Z,99137.50
2023-03-31T02:44:04.439Z,99134.81
2023-03-31T02:46:32.251Z,99130.38
2023-03-31T02:49:02.607Z,99140.91
2023-03-31T02:51:39.918Z,99136.75
2023-03-31T02:54:35.111Z,99131.72
2023-03-31T02:57:14.755Z,99132.75
2023-03-31T03:00:09.564Z,99127.13
2023-03-31T03:02:48.817Z,99137.91
2023-03-31T03:05:38.528Z,99141.97
2023-03-31T03:08:26.229Z,99143.81
2023-03-31T03:10:56.776Z,99130.06
2023-03-31T03:13:33.243Z,99130.81
2023-03-31T03:16:27.524Z,99133.41
2023-03-31T03:19:08.427Z,99126.19
2023-03-31T03:21:36.126Z,99129.69
2023-03-31T03:24:03.705Z,99131.59
2023-03-31T03:26:35.229Z,99126.44
2023-03-31T03:29:02.948Z,99131.69
2023-03-31T03:31:30.834Z,99132.03
2023-03-31T03:33:58.279Z,99129.78
2023-03-31T03:36:26.104Z,99124.56
2023-03-31T03:38:53.537Z,99123.97
2023-03-31T03:41:20.957Z,99122.13
2023-03-31T03:43:48.642Z,99118.03
2023-03-31T03:46:16.210Z,99119.69
2023-03-31T03:48:43.808Z,99118.91
2023-03-31T03:51:11.477Z,99125.59
2023-03-31T03:53:38.863Z,99133.69
2023-03-31T03:56:06.632Z,99129.00
2023-03-31T03:58:34.613Z,99130.09
2023-03-31T04:01:02.332Z,99131.09
2023-03-31T04:03:31.074Z,99120.94
2023-03-31T04:05:58.566Z,99119.50
2023-03-31T04:08:25.939Z,99116.84
2023-03-31T04:10:53.603Z,99101.19
2023-03-31T04:13:21.229Z,99098.06
2023-03-31T04:15:48.852Z,99104.88
2023-03-31T04:18:23.084Z,99101.06
2023-03-31T04:21:06.422Z,99101.50
2023-03-31T04:23:38.408Z,99100.19
2023-03-31T04:26:09.053Z,99101.78
2023-03-31T04:28:37.875Z,99104.03
2023-03-31T04:31:08.102Z,99101.22
2023-03-31T04:33:38.743Z,99107.50
2023-03-31T04:36:17.674Z,99108.47
2023-03-31T04:38:46.977Z,99104.22
2023-03-31T04:41:14.773Z,99112.91
2023-03-31T04:43:42.303Z,99104.53
2023-03-31T04:46:10.190Z,99106.50
2023-03-31T04:48:38.713Z,99098.97
2023-03-31T04:51:06.312Z,99092.44
2023-03-31T04:53:33.865Z,99088.63
2023-03-31T04:56:01.704Z,99091.41
2023-03-31T04:58:29.110Z,99086.56
2023-03-31T05:00:56.580Z,99085.06
2023-03-31T05:03:24.378Z,99096.72
2023-03-31T05:05:51.914Z,99085.91
2023-03-31T05:08:19.508Z,99087.19
2023-03-31T05:10:47.195Z,99074.66
2023-03-31T05:13:14.600Z,99073.16
2023-03-31T05:15:41.967Z,99078.28
2023-03-31T05:18:09.588Z,99074.03
2023-03-31T05:20:37.253Z,99064.50
2023-03-31T05:23:04.660Z,99074.81
2023-03-31T05:25:33.628Z,99067.34
2023-03-31T05:28:01.423Z,99072.59
2023-03-31T05:30:29.746Z,99082.22
2023-03-31T05:32:57.507Z,99069.31
2023-03-31T05:35:24.985Z,99065.66
2023-03-31T05:37:52.497Z,99066.53
2023-03-31T05:40:20.225Z,99074.16
2023-03-31T05:42:47.626Z,99067.91
2023-03-31T05:45:15.026Z,99074.81
2023-03-31T05:47:42.748Z,99073.66
2023-03-31T05:50:11.901Z,99060.97
2023-03-31T05:52:40.816Z,99070.59
2023-03-31T05:55:08.874Z,99068.41
2023-03-31T05:57:36.425Z,99071.44
2023-03-31T06:00:06.295Z,99070.41
2023-03-31T06:02:34.097Z,99062.66
2023-03-31T06:05:01.570Z,99067.38
2023-03-31T06:07:29.190Z,99063.03
2023-03-31T06:09:56.877Z,99071.78
2023-03-31T06:12:24.245Z,99065.34
2023-03-31T06:14:51.647Z,99056.94
2023-03-31T06:17:19.376Z,99057.78
2023-03-31T06:19:46.849Z,99052.38
2023-03-31T06:22:14.243Z,99054.56
2023-03-31T06:24:41.926Z,99048.84
2023-03-31T06:27:09.262Z,99049.16
2023-03-31T06:29:36.786Z,99046.97
2023-03-31T06:32:05.257Z,99043.56
2023-03-31T06:34:32.805Z,99050.13
2023-03-31T06:37:00.152Z,99048.37
2023-03-31T06:39:28.637Z,99039.44
2023-03-31T06:41:56.380Z,99048.53
2023-03-31T06:44:25.497Z,99047.63
2023-03-31T06:46:53.251Z,99046.78
2023-03-31T06:49:20.800Z,99049.97
2023-03-31T06:51:48.216Z,99064.31
2023-03-31T06:54:16.035Z,99064.97
2023-03-31T06:56:43.484Z,99065.31
2023-03-31T06:59:11.314Z,99067.31
2023-03-31T07:01:39.260Z,99057.97
2023-03-31T07:04:06.878Z,99058.91
2023-03-31T07:06:34.779Z,99064.88
2023-03-31T07:09:02.439Z,99052.44
2023-03-31T07:11:29.910Z,99060.62
2023-03-31T07:13:57.551Z,99052.06
2023-03-31T07:16:25.376Z,99051.81
2023-03-31T07:18:54.883Z,99048.16
2023-03-31T07:21:22.285Z,99045.31
2023-03-31T07:23:49.965Z,99033.97
2023-03-31T07:26:17.586Z,99038.94
2023-03-31T07:28:44.976Z,99024.03
2023-03-31T07:31:13.823Z,99027.41
2023-03-31T07:33:41.460Z,99025.03
2023-03-31T07:36:13.163Z,99015.56
2023-03-31T07:38:43.561Z,99011.59
2023-03-31T07:41:12.867Z,99012.38
2023-03-31T07:43:40.907Z,99008.84
2023-03-31T07:46:18.480Z,99010.53
2023-03-31T07:48:47.075Z,99013.03
2023-03-31T07:51:16.954Z,99017.06
2023-03-31T07:53:44.871Z,99006.03
2023-03-31T07:56:12.469Z,99016.34
2023-03-31T07:58:40.491Z,99020.94
2023-03-31T08:01:08.262Z,99014.16
2023-03-31T08:03:36.211Z,99008.31
2023-03-31T08:06:03.832Z,99007.00
2023-03-31T08:08:31.214Z,98992.19
2023-03-31T08:10:58.903Z,98986.03
2023-03-31T08:13:26.310Z,98989.28
2023-03-31T08:15:53.771Z,98977.81
2023-03-31T08:18:21.403Z,98975.28
2023-03-31T08:20:50.001Z,98978.22
2023-03-31T08:23:17.440Z,98973.31
2023-03-31T08:25:45.102Z,98973.97
2023-03-31T08:28:14.193Z,98974.34
2023-03-31T08:30:41.891Z,98968.09
2023-03-31T08:33:12.314Z,98957.50
2023-03-31T08:35:39.775Z,98954.00
2023-03-31T08:38:07.350Z,98949.00
2023-03-31T08:40:35.145Z,98939.16
2023-03-31T08:43:02.453Z,98942.06
2023-03-31T08:45:35.411Z,98934.28
2023-03-31T08:48:28.688Z,98932.50
2023-03-31T08:51:01.383Z,98923.34
2023-03-31T08:53:31.767Z,98916.09
2023-03-31T08:55:59.544Z,98912.78
2023-03-31T08:58:43.762Z,98914.28
2023-03-31T09:01:54.580Z,98905.56
2023-03-31T09:04:32.573Z,98902.69
2023-03-31T09:07:24.994Z,98901.22
2023-03-31T09:10:09.357Z,98889.88
2023-03-31T09:12:58.305Z,98901.38
2023-03-31T09:15:34.892Z,98899.44
2023-03-31T09:18:11.272Z,98894.28
2023-03-31T09:20:41.203Z,98889.59
2023-03-31T09:23:31.208Z,98883.06
2023-03-31T09:25:59.742Z,98877.09
2023-03-31T09:28:34.999Z,98882.44
2023-03-31T09:31:12.943Z,98873.66
2023-03-31T09:33:43.175Z,98876.44
2023-03-31T09:36:18.090Z,98868.44
2023-03-31T09:38:46.511Z,98865.22
2023-03-31T09:41:16.670Z,98856.25
2023-03-31T09:43:46.241Z,98849.72
2023-03-31T09:46:14.204Z,98849.50
2023-03-31T09:48:42.598Z,98846.62
2023-03-31T09:51:18.439Z,98847.19
2023-03-31T09:53:50.954Z,98841.91
2023-03-31T09:56:46.798Z,98841.00
2023-03-31T09:59:18.744Z,98838.38
2023-03-31T10:01:48.233Z,98831.88
2023-03-31T10:04:21.837Z,98816.38
2023-03-31T10:06:49.727Z,98817.53
2023-03-31T10:09:17.375Z,98814.69
2023-03-31T10:12:05.810Z,98816.91
2023-03-31T10:14:41.108Z,98814.16
2023-03-31T10:17:14.663Z,98798.06
2023-03-31T10:19:53.336Z,98802.84
2023-03-31T10:22:20.703Z,98800.31
2023-03-31T10:24:50.445Z,98793.75
2023-03-31T10:27:24.733Z,98792.62
2023-03-31T10:29:53.924Z,98790.78
2023-03-31T10:32:29.073Z,98787.59
2023-03-31T10:34:57.940Z,98785.59
2023-03-31T10:37:27.302Z,98785.59
2023-03-31T10:39:59.313Z,98783.31
2023-03-31T10:42:27.870Z,98773.50
2023-03-31T10:45:36.497Z,98778.28
2023-03-31T10:48:17.940Z,98774.31
2023-03-31T10:50:45.509Z,98767.28
2023-03-31T10:53:14.631Z,98758.37
2023-03-31T10:56:16.109Z,98754.38
2023-03-31T10:59:06.271Z,98758.19
2023-03-31T11:01:52.838Z,98774.91
2023-03-31T11:04:26.353Z,98753.06
2023-03-31T11:07:08.172Z,98753.06
2023-03-31T11:10:00.046Z,98755.78
2023-03-31T11:12:32.948Z,98746.56
2023-03-31T11:15:10.306Z,98749.16
2023-03-31T11:17:52.177Z,98744.69
2023-03-31T11:20:49.078Z,98738.28
2023-03-31T11:23:42.958Z,98739.25
2023-03-31T11:26:16.889Z,98724.75
2023-03-31T11:28:59.052Z,98718.34
2023-03-31T11:31:49.997Z,98702.44
2023-03-31T11:34:33.791Z,98691.28
2023-03-31T11:37:17.234Z,98681.03
2023-03-31T11:40:08.059Z,98677.16
2023-03-31T11:42:56.177Z,98660.84
2023-03-31T11:45:30.134Z,98656.62
2023-03-31T11:48:04.315Z,98653.91
2023-03-31T11:50:38.613Z,98651.22
2023-03-31T11:53:30.792Z,98643.50
2023-03-31T11:55:59.102Z,98632.75
2023-03-31T11:58:38.377Z,98624.66
2023-03-31T12:01:20.401Z,98624.53
2023-03-31T12:04:13.526Z,98627.25
2023-03-31T12:06:42.588Z,98606.00
2023-03-31T12:09:32.765Z,98609.06
2023-03-31T12:12:06.755Z,98603.63
2023-03-31T12:14:40.572Z,98609.88
2023-03-31T12:17:14.753Z,98599.53
2023-03-31T12:19:48.611Z,98601.19
2023-03-31T12:22:35.870Z,98596.47
2023-03-31T12:25:03.671Z,98587.22
2023-03-31T12:27:40.507Z,98601.56
2023-03-31T12:30:26.560Z,98593.31
2023-03-31T12:32:56.937Z,98596.13
2023-03-31T12:35:38.286Z,98595.56
2023-03-31T12:38:08.722Z,98588.69
2023-03-31T12:41:08.265Z,98589.75
2023-03-31T12:44:04.809Z,98580.06
2023-03-31T12:47:11.276Z,98577.06
2023-03-31T12:50:11.069Z,98558.06
2023-03-31T12:52:47.683Z,98570.44
2023-03-31T12:55:29.685Z,98560.37
2023-03-31T12:58:22.348Z,98546.53
2023-03-31T13:01:19.215Z,98537.59
2023-03-31T13:04:10.285Z,98541.25
2023-03-31T13:06:37.686Z,98553.59
2023-03-31T13:09:11.292Z,98541.88
2023-03-31T13:11:47.772Z,98541.66
2023-03-31T13:14:28.823Z,98530.72
2023-03-31T13:17:13.963Z,98522.47
2023-03-31T13:19:41.885Z,98522.06
2023-03-31T13:22:28.379Z,98505.63
2023-03-31T13:25:45.358Z,98509.03
2023-03-31T13:28:17.191Z,98488.50
2023-03-31T13:30:46.598Z,98487.09
2023-03-31T13:33:22.893Z,98479.75
2023-03-31T13:35:57.551Z,98481.09
2023-03-31T13:39:12.902Z,98471.72
2023-03-31T13:41:49.047Z,98465.69
2023-03-31T13:44:44.014Z,98442.88
2023-03-31T13:47:35.976Z,98432.03
2023-03-31T13:50:23.650Z,98434.12
2023-03-31T13:53:25.601Z,98433.41
2023-03-31T13:56:09.702Z,98451.84
2023-03-31T13:58:53.168Z,98436.69
2023-03-31T14:01:39.086Z,98426.31
2023-03-31T14:04:42.125Z,98426.41
2023-03-31T14:07:14.292Z,98411.41
2023-03-31T14:09:49.666Z,98411.28
2023-03-31T14:12:37.211Z,98403.44
2023-03-31T14:15:06.535Z,98391.44
2023-03-31T14:17:36.780Z,98383.31
2023-03-31T14:20:27.598Z,98391.41
2023-03-31T14:23:36.758Z,98378.31
2023-03-31T14:26:09.228Z,98360.50
2023-03-31T14:28:37.361Z,98348.63
2023-03-31T14:31:38.651Z,98347.28
2023-03-31T14:34:15.768Z,98344.88
2023-03-31T14:37:03.322Z,98352.56
2023-03-31T14:39:33.731Z,98341.25
2023-03-31T14:42:05.854Z,98340.22
2023-03-31T14:44:34.574Z,98329.41
2023-03-31T14:47:02.027Z,98327.19
2023-03-31T14:49:35.847Z,98321.41
2023-03-31T14:52:15.080Z,98324.69
2023-03-31T14:54:46.429Z,98331.78
2023-03-31T14:57:18.285Z,98332.31
2023-03-31T14:59:48.284Z,98322.34
2023-03-31T15:02:30.546Z,98323.91
2023-03-31T15:04:58.662Z,98321.06
2023-03-31T15:07:27.909Z,98325.53
2023-03-31T15:09:55.519Z,98336.53
2023-03-31T15:12:23.553Z,98324.91
2023-03-31T15:14:54.282Z,98338.19
2023-03-31T15:17:28.807Z,98322.66
2023-03-31T15:19:58.931Z,98325.75
2023-03-31T15:22:28.529Z,98316.66
2023-03-31T15:24:56.348Z,98322.94
2023-03-31T15:27:41.148Z,98333.50
2023-03-31T15:30:15.475Z,98327.66
2023-03-31T15:32:43.093Z,98329.53
2023-03-31T15:35:22.533Z,98317.94
2023-03-31T15:37:52.239Z,98308.13
2023-03-31T15:40:24.148Z,98291.31
2023-03-31T15:43:20.302Z,98288.16
2023-03-31T15:45:57.819Z,98283.91
2023-03-31T15:48:34.857Z,98294.91
2023-03-31T15:51:12.036Z,98281.41
2023-03-31T15:53:53.779Z,98288.97
2023-03-31T15:56:45.352Z,98280.47
2023-03-31T16:02:15.044Z,98275.81
2023-03-31T16:04:42.834Z,98277.44
2023-03-31T16:07:22.901Z,98279.53
2023-03-31T16:10:03.313Z,98285.22
2023-03-31T16:12:43.565Z,98285.81
2023-03-31T16:15:18.441Z,98273.59
2023-03-31T16:17:49.061Z,98272.53
2023-03-31T16:20:27.096Z,98265.16
2023-03-31T16:22:58.784Z,98268.25
2023-03-31T16:25:30.789Z,98271.41
2023-03-31T16:28:00.498Z,98285.81
2023-03-31T16:30:40.369Z,98290.75
2023-03-31T16:33:17.857Z,98291.53
2023-03-31T16:35:56.509Z,98303.44
2023-03-31T16:38:26.208Z,98302.69
2023-03-31T16:40:56.380Z,98311.69
2023-03-31T16:43:28.089Z,98298.97
2023-03-31T16:45:57.512Z,98316.19
2023-03-31T16:48:27.435Z,98320.28
2023-03-31T16:50:57.625Z,98321.84
2023-03-31T16:53:31.150Z,98320.59
2023-03-31T16:55:58.621Z,98313.00
2023-03-31T16:58:28.971Z,98304.41
2023-03-31T17:00:57.627Z,98301.09
2023-03-31T17:03:25.425Z,98301.91
2023-03-31T17:05:58.496Z,98297.28
2023-03-31T17:08:27.656Z,98305.16
2023-03-31T17:11:03.881Z,98306.56
2023-03-31T17:13:33.777Z,98306.59
2023-03-31T17:16:16.111Z,98308.44
2023-03-31T17:18:46.472Z,98316.84
2023-03-31T17:21:16.666Z,98301.66
2023-03-31T17:23:44.273Z,98294.84
2023-03-31T17:26:12.802Z,98306.19
2023-03-31T17:28:41.640Z,98294.09
2023-03-31T17:31:13.717Z,98290.66
2023-03-31T17:33:41.874Z,98279.19
2023-03-31T17:36:10.043Z,98276.91
2023-03-31T17:38:39.903Z,98270.56
2023-03-31T17:41:10.862Z,98266.47
2023-03-31T17:43:39.077Z,98264.66
2023-03-31T17:46:11.104Z,98259.91
2023-03-31T17:48:40.545Z,98270.91
2023-03-31T17:51:10.651Z,98268.75
2023-03-31T17:53:39.702Z,98284.09
2023-03-31T17:56:07.605Z,98283.97
2023-03-31T17:58:35.198Z,98296.66
2023-03-31T18:01:07.808Z,98292.31
2023-03-31T18:03:36.666Z,98307.56
2023-03-31T18:06:06.625Z,98299.31
2023-03-31T18:08:35.091Z,98299.78
2023-03-31T18:11:05.225Z,98281.50
2023-03-31T18:13:34.798Z,98290.75
2023-03-31T18:16:03.677Z,98287.28
2023-03-31T18:18:31.557Z,98285.84
2023-03-31T18:21:04.461Z,98284.25
2023-03-31T18:23:32.509Z,98287.44
2023-03-31T18:26:00.550Z,98301.87
2023-03-31T18:28:28.388Z,98300.53
2023-03-31T18:30:56.462Z,98300.63
2023-03-31T18:33:23.966Z,98296.66
2023-03-31T18:35:53.006Z,98317.19
2023-03-31T18:38:20.917Z,98331.72
2023-03-31T18:40:49.917Z,98333.19
2023-03-31T18:43:22.283Z,98331.63
2023-03-31T18:45:51.391Z,98321.12
2023-03-31T18:48:19.264Z,98320.66
2023-03-31T18:50:46.835Z,98318.13
2023-03-31T18:53:15.384Z,98327.34
2023-03-31T18:55:44.175Z,98325.31
2023-03-31T18:58:12.122Z,98330.97
2023-03-31T19:00:40.782Z,98326.44
2023-03-31T19:03:09.029Z,98332.84
2023-03-31T19:05:37.069Z,98336.22
2023-03-31T19:08:05.686Z,98337.47
2023-03-31T19:10:33.226Z,98339.94
2023-03-31T19:13:00.884Z,98339.69
2023-03-31T19:15:29.008Z,98334.22
2023-03-31T19:17:57.189Z,98328.72
2023-03-31T19:20:24.686Z,98332.66
2023-03-31T19:22:52.634Z,98324.66
2023-03-31T19:25:20.809Z,98326.38
2023-03-31T19:27:48.468Z,98321.47
2023-03-31T19:30:21.722Z,98324.50
2023-03-31T19:32:49.523Z,98326.31
2023-03-31T19:35:18.626Z,98326.91
2023-03-31T19:37:46.922Z,98330.78
2023-03-31T19:40:14.827Z,98326.38
2023-03-31T19:42:44.355Z,98326.06
2023-03-31T19:45:12.345Z,98318.31
2023-03-31T19:47:40.136Z,98332.09
2023-03-31T19:50:08.617Z,98317.13
2023-03-31T19:52:36.577Z,98318.88
2023-03-31T19:55:04.991Z,98328.22
2023-03-31T19:57:33.369Z,98325.78
2023-03-31T20:00:02.123Z,98320.59
2023-03-31T20:02:32.863Z,98322.94
2023-03-31T20:05:01.282Z,98323.56
2023-03-31T20:07:29.406Z,98320.47
2023-03-31T20:09:57.022Z,98321.47
2023-03-31T20:12:24.916Z,98309.63
2023-03-31T20:14:52.545Z,98309.00
2023-03-31T20:17:20.736Z,98308.94
2023-03-31T20:19:48.701Z,98312.94
2023-03-31T20:22:16.140Z,98304.62
2023-03-31T20:24:43.675Z,98314.47
2023-03-31T20:27:11.675Z,98299.28
2023-03-31T20:29:39.299Z,98284.78
2023-03-31T20:32:07.269Z,98298.78
2023-03-31T20:34:35.520Z,98287.19
2023-03-31T20:37:03.569Z,98281.13
2023-03-31T20:39:31.162Z,98275.78
2023-03-31T20:41:58.880Z,98271.56
2023-03-31T20:44:26.737Z,98272.72
2023-03-31T20:46:55.575Z,98262.81
2023-03-31T20:49:23.506Z,98269.88
2023-03-31T20:51:50.990Z,98260.31
2023-03-31T20:54:18.413Z,98262.63
2023-03-31T20:56:46.424Z,98259.75
2023-03-31T20:59:15.074Z,98270.06
2023-03-31T21:01:42.915Z,98271.19
2023-03-31T21:04:11.522Z,98267.19
2023-03-31T21:06:41.604Z,98261.59
2023-03-31T21:09:09.863Z,98259.47
2023-03-31T21:11:39.240Z,98251.53
2023-03-31T21:14:06.887Z,98250.44
2023-03-31T21:16:34.355Z,98250.91
2023-03-31T21:19:02.065Z,98235.47
2023-03-31T21:21:29.455Z,98230.84
2023-03-31T21:23:57.167Z,98236.38
2023-03-31T21:26:25.666Z,98228.03
2023-03-31T21:28:56.081Z,98225.22
2023-03-31T21:31:24.676Z,98226.22
2023-03-31T21:33:53.416Z,98220.03
2023-03-31T21:36:22.664Z,98224.72
2023-03-31T21:38:52.534Z,98227.16
2023-03-31T21:41:26.360Z,98225.91
2023-03-31T21:43:54.621Z,98237.56
2023-03-31T21:46:27.470Z,98234.88
2023-03-31T21:48:55.435Z,98233.59
2023-03-31T21:51:23.670Z,98239.44
2023-03-31T21:53:55.129Z,98234.78
2023-03-31T21:56:24.038Z,98236.53
2023-03-31T21:58:51.769Z,98242.25
2023-03-31T22:01:19.790Z,98240.63
2023-03-31T22:03:48.822Z,98241.00
2023-03-31T22:06:16.439Z,98242.91
2023-03-31T22:08:44.105Z,98238.44
2023-03-31T22:11:12.577Z,98237.22
2023-03-31T22:13:41.037Z,98227.84
2023-03-31T22:16:16.397Z,98230.97
2023-03-31T22:18:45.006Z,98221.41
2023-03-31T22:21:26.341Z,98218.97
2023-03-31T22:23:56.548Z,98221.53
2023-03-31T22:26:24.729Z,98216.84
2023-03-31T22:28:52.143Z,98218.34
2023-03-31T22:31:19.895Z,98206.16
2023-03-31T22:33:47.934Z,98214.69
2023-03-31T22:36:15.786Z,98218.72
2023-03-31T22:38:43.603Z,98212.94
2023-03-31T22:41:11.153Z,98210.66
2023-03-31T22:43:39.844Z,98217.00
2023-03-31T22:46:08.042Z,98212.34
2023-03-31T22:48:35.601Z,98218.03
2023-03-31T22:51:06.212Z,98210.75
2023-03-31T22:53:34.276Z,98208.38
2023-03-31T22:56:06.316Z,98201.69
2023-03-31T22:58:34.302Z,98208.63
2023-03-31T23:01:02.174Z,98206.31
2023-03-31T23:03:29.919Z,98201.25
2023-03-31T23:05:57.701Z,98202.41
2023-03-31T23:08:25.112Z,98206.28
2023-03-31T23:10:57.656Z,98193.97
2023-03-31T23:13:26.680Z,98186.78
2023-03-31T23:15:54.478Z,98178.63
2023-03-31T23:18:22.618Z,98189.09
2023-03-31T23:20:50.550Z,98187.06
2023-03-31T23:23:18.181Z,98183.53
2023-03-31T23:25:45.882Z,98180.84
2023-03-31T23:28:13.590Z,98191.78
2023-03-31T23:30:41.270Z,98196.94
2023-03-31T23:33:09.062Z,98203.13
2023-03-31T23:35:36.788Z,98205.53
2023-03-31T23:38:04.342Z,98205.56
2023-03-31T23:40:31.857Z,98210.50
2023-03-31T23:42:59.539Z,98219.63
2023-03-31T23:45:27.217Z,98211.75
2023-03-31T23:47:54.688Z,98207.38
2023-03-31T23:50:22.512Z,98209.84
2023-03-31T23:52:49.942Z,98202.41
2023-03-31T23:55:17.927Z,98198.16
2023-03-31T23:57:45.699Z,98201.44
